Time;durP1;ratioP1;P1;durP2;ratioP2;P2;SDS_P1;SDS_P2;PMS_P1;PMS_P2;Temp;Humidity;BMP_temperature;BMP_pressure;BME280_temperature;BME280_humidity;BME280_pressure;Samples;Min_cycle;Max_cycle;Signal;HPM_P1;HPM_P2
2023/04/17 00:01:54;;;;;;;2.87;2.50;;;19.90;68.60;;;;;;5034467;28;20444;-92
2023/04/17 00:04:21;;;;;;;3.27;3.07;;;19.90;67.80;;;;;;5034292;28;20434;-95
2023/04/17 00:06:52;;;;;;;2.90;2.70;;;19.90;67.80;;;;;;5034778;28;20457;-92
2023/04/17 00:09:19;;;;;;;3.07;2.77;;;19.90;67.90;;;;;;5034693;28;20473;-93
2023/04/17 00:11:46;;;;;;;3.03;2.83;;;19.90;67.90;;;;;;5034443;28;20557;-93
2023/04/17 00:14:13;;;;;;;3.03;2.73;;;19.90;67.80;;;;;;5034153;28;20469;-93
2023/04/17 00:16:40;;;;;;;2.93;2.70;;;19.90;67.80;;;;;;5034374;28;20477;-93
2023/04/17 00:19:07;;;;;;;3.07;2.87;;;19.90;67.90;;;;;;5034564;28;20999;-93
2023/04/17 00:21:34;;;;;;;3.20;3.00;;;19.90;67.90;;;;;;5034368;28;20446;-93
2023/04/17 00:24:02;;;;;;;2.73;2.53;;;19.90;67.80;;;;;;5034308;28;20516;-96
2023/04/17 00:26:31;;;;;;;2.60;2.40;;;19.90;67.90;;;;;;5034654;28;20533;-94
2023/04/17 00:28:58;;;;;;;2.70;2.50;;;19.90;67.90;;;;;;5034461;28;20470;-94
2023/04/17 00:31:25;;;;;;;2.60;2.40;;;19.90;67.90;;;;;;5034595;28;20513;-93
2023/04/17 00:33:51;;;;;;;2.80;2.60;;;19.80;67.80;;;;;;5034468;28;20492;-93
2023/04/17 00:36:18;;;;;;;2.97;2.77;;;19.90;67.90;;;;;;5034965;28;20456;-93
2023/04/17 00:38:45;;;;;;;2.90;2.70;;;20.00;68.00;;;;;;5035185;28;20524;-93
2023/04/17 00:41:14;;;;;;;2.50;2.30;;;19.80;67.80;;;;;;5035574;28;20879;-93
2023/04/17 00:43:41;;;;;;;2.90;2.70;;;19.90;67.90;;;;;;5036644;28;20530;-92
2023/04/17 00:46:08;;;;;;;2.60;2.40;;;19.70;67.70;;;;;;5049236;28;20469;-91
2023/04/17 00:48:37;;;;;;;2.93;2.73;;;19.80;67.80;;;;;;5058461;28;20446;-91
2023/04/17 00:51:04;;;;;;;3.77;3.07;;;19.80;67.80;;;;;;5039262;28;20486;-95
2023/04/17 00:53:32;;;;;;;3.27;3.07;;;19.80;67.80;;;;;;5034351;28;20474;-92
2023/04/17 00:56:00;;;;;;;2.47;2.27;;;19.80;67.90;;;;;;5034148;28;20447;-92
2023/04/17 00:58:28;;;;;;;2.47;2.27;;;19.80;67.80;;;;;;5034245;28;20789;-92
2023/04/17 01:00:55;;;;;;;2.40;2.20;;;19.80;67.80;;;;;;5033483;28;20812;-92
2023/04/17 01:03:22;;;;;;;3.13;2.83;;;19.80;67.80;;;;;;5033985;28;20461;-92
2023/04/17 01:05:51;;;;;;;2.53;2.33;;;19.80;67.80;;;;;;5033445;28;20537;-92
2023/04/17 01:08:18;;;;;;;3.13;2.93;;;19.80;67.80;;;;;;5033577;28;20967;-92
2023/04/17 01:10:45;;;;;;;3.00;2.60;;;19.80;67.80;;;;;;5033506;28;20476;-92
2023/04/17 01:13:12;;;;;;;2.83;2.40;;;19.80;67.80;;;;;;5033380;28;20871;-92
2023/04/17 01:15:41;;;;;;;2.70;2.50;;;19.80;67.80;;;;;;5033138;28;20854;-92
2023/04/17 01:18:08;;;;;;;2.77;2.57;;;19.80;67.80;;;;;;5033713;28;20512;-94
2023/04/17 01:20:36;;;;;;;2.60;2.40;;;19.80;67.80;;;;;;5033389;28;20488;-94
2023/04/17 01:23:03;;;;;;;3.10;2.90;;;19.80;67.90;;;;;;5035349;28;20474;-96
2023/04/17 01:25:31;;;;;;;3.67;3.37;;;19.80;67.80;;;;;;5036571;28;20449;-93
2023/04/17 01:27:58;;;;;;;2.90;2.70;;;19.80;67.80;;;;;;5036849;28;20533;-93
2023/04/17 01:30:25;;;;;;;2.80;2.60;;;19.80;67.80;;;;;;5036590;28;20517;-93
2023/04/17 01:32:53;;;;;;;2.97;2.77;;;19.80;67.80;;;;;;5036976;28;20468;-92
2023/04/17 01:35:21;;;;;;;2.90;2.70;;;19.80;67.90;;;;;;5036621;28;20446;-93
2023/04/17 01:37:48;;;;;;;2.83;2.63;;;19.80;67.80;;;;;;5036967;28;20839;-93
2023/04/17 01:40:15;;;;;;;2.63;2.43;;;19.90;67.90;;;;;;5037445;28;20446;-93
2023/04/17 01:42:43;;;;;;;2.73;2.53;;;19.80;67.70;;;;;;5036502;28;20449;-92
2023/04/17 01:45:10;;;;;;;2.43;2.23;;;19.80;67.80;;;;;;5036464;28;20854;-93
2023/04/17 01:47:37;;;;;;;2.80;2.60;;;19.80;67.80;;;;;;5036830;28;20457;-94
2023/04/17 01:50:05;;;;;;;2.70;2.50;;;19.90;68.80;;;;;;5036331;28;20576;-94
2023/04/17 01:52:31;;;;;;;2.90;2.70;;;19.80;67.80;;;;;;5036251;28;20450;-93
2023/04/17 01:54:58;;;;;;;2.90;2.70;;;19.80;67.80;;;;;;5036459;28;20559;-94
2023/04/17 01:57:26;;;;;;;2.57;2.47;;;19.80;67.80;;;;;;5036292;28;20537;-93
2023/04/17 01:59:55;;;;;;;2.63;2.43;;;19.80;67.80;;;;;;5037123;28;20457;-93
2023/04/17 02:02:22;;;;;;;2.53;2.33;;;19.80;67.80;;;;;;5036295;28;20446;-93
2023/04/17 02:04:49;;;;;;;3.30;3.00;;;19.80;67.90;;;;;;5037433;28;20460;-92
2023/04/17 02:07:16;;;;;;;3.00;2.80;;;19.70;67.80;;;;;;5036230;28;20456;-93
2023/04/17 02:09:43;;;;;;;3.07;2.80;;;19.80;67.90;;;;;;5036170;28;20454;-93
2023/04/17 02:12:10;;;;;;;2.60;2.40;;;19.90;68.00;;;;;;5036226;28;20869;-93
2023/04/17 02:14:36;;;;;;;2.90;2.70;;;19.80;67.80;;;;;;5036822;28;20887;-93
2023/04/17 02:17:05;;;;;;;2.60;2.40;;;19.70;67.70;;;;;;5036932;28;20460;-94
2023/04/17 02:19:32;;;;;;;2.57;2.37;;;19.70;67.80;;;;;;5036411;28;20442;-93
2023/04/17 02:21:59;;;;;;;3.37;3.07;;;19.80;67.90;;;;;;5036092;28;20533;-93
2023/04/17 02:24:26;;;;;;;2.90;2.70;;;19.70;67.80;;;;;;5036098;28;20501;-95
2023/04/17 02:26:53;;;;;;;2.80;2.60;;;19.90;68.00;;;;;;5035987;28;20810;-94
2023/04/17 02:29:20;;;;;;;2.87;2.67;;;19.80;67.90;;;;;;5036110;28;20450;-93
2023/04/17 02:31:46;;;;;;;3.10;2.90;;;19.70;67.80;;;;;;5035686;28;20474;-93
2023/04/17 02:34:15;;;;;;;3.33;3.00;;;19.70;68.60;;;;;;5036128;28;20473;-93
2023/04/17 02:36:42;;;;;;;2.90;2.70;;;19.80;67.90;;;;;;5035658;28;20445;-92
2023/04/17 02:39:09;;;;;;;2.50;2.30;;;19.70;67.80;;;;;;5036052;28;20941;-92
2023/04/17 02:41:36;;;;;;;2.77;2.57;;;19.80;67.90;;;;;;5036149;28;20442;-91
2023/04/17 02:44:03;;;;;;;3.47;3.17;;;19.70;67.80;;;;;;5036575;28;20480;-95
2023/04/17 02:46:30;;;;;;;2.50;2.30;;;19.70;67.80;;;;;;5035729;28;20482;-92
2023/04/17 02:48:56;;;;;;;3.50;3.17;;;19.70;67.70;;;;;;5035705;28;20465;-96
2023/04/17 02:51:25;;;;;;;2.50;2.30;;;19.70;67.80;;;;;;5035595;28;20573;-95
2023/04/17 02:53:52;;;;;;;2.60;2.40;;;19.80;67.90;;;;;;5035603;28;20474;-92
2023/04/17 02:56:19;;;;;;;2.70;2.50;;;19.70;67.80;;;;;;5035861;28;20553;-92
2023/04/17 02:58:46;;;;;;;2.80;2.60;;;19.70;67.80;;;;;;5035449;28;20451;-91
2023/04/17 03:01:15;;;;;;;2.70;2.50;;;19.70;67.80;;;;;;5036118;28;20550;-95
2023/04/17 03:03:43;;;;;;;2.70;2.50;;;19.70;67.80;;;;;;5036275;28;20536;-92
2023/04/17 03:06:10;;;;;;;2.90;2.70;;;19.70;67.80;;;;;;5035775;28;20496;-92
2023/04/17 03:08:38;;;;;;;2.60;2.50;;;19.70;67.80;;;;;;5036625;28;20450;-93
2023/04/17 03:11:05;;;;;;;3.00;2.80;;;19.70;67.80;;;;;;5035352;28;20510;-92
2023/04/17 03:13:35;;;;;;;3.00;2.60;;;19.70;67.80;;;;;;5035871;28;20439;-92
2023/04/17 03:16:03;;;;;;;3.00;2.80;;;19.70;67.80;;;;;;5036955;28;20480;-95
2023/04/17 03:18:30;;;;;;;2.53;2.33;;;19.70;67.80;;;;;;5037115;28;20469;-91
2023/04/17 03:20:57;;;;;;;2.67;2.47;;;19.70;67.80;;;;;;5041268;28;20421;-92
2023/04/17 03:23:24;;;;;;;2.60;2.50;;;19.70;67.80;;;;;;5059001;28;20473;-93
2023/04/17 03:25:53;;;;;;;2.70;2.50;;;19.60;67.60;;;;;;5049016;28;20516;-92
2023/04/17 03:28:20;;;;;;;2.93;2.73;;;19.70;67.80;;;;;;5035598;28;20988;-92
2023/04/17 03:30:48;;;;;;;2.17;2.07;;;19.70;67.80;;;;;;5034616;28;20480;-92
2023/04/17 03:33:15;;;;;;;2.60;2.40;;;19.80;67.90;;;;;;5035509;28;20455;-95
2023/04/17 03:35:42;;;;;;;2.47;2.27;;;19.70;67.80;;;;;;5034469;28;20504;-91
2023/04/17 03:38:10;;;;;;;3.00;2.80;;;19.70;67.90;;;;;;5034463;28;20440;-92
2023/04/17 03:40:37;;;;;;;2.50;2.30;;;19.70;67.80;;;;;;5034642;28;20472;-92
2023/04/17 03:43:05;;;;;;;2.57;2.37;;;19.70;67.90;;;;;;5034449;28;20444;-94
2023/04/17 03:45:32;;;;;;;2.87;2.67;;;19.70;67.80;;;;;;5034033;28;20822;-92
2023/04/17 03:47:59;;;;;;;2.53;2.33;;;19.60;67.70;;;;;;5034411;28;20487;-92
2023/04/17 03:50:26;;;;;;;2.47;2.27;;;19.70;67.90;;;;;;5045620;28;20932;-92
2023/04/17 03:52:53;;;;;;;2.40;2.30;;;19.70;67.90;;;;;;5053533;28;20520;-92
2023/04/17 03:55:20;;;;;;;2.60;2.40;;;19.70;67.90;;;;;;5052601;28;20455;-93
2023/04/17 03:57:47;;;;;;;2.53;2.33;;;19.70;67.90;;;;;;5046839;28;20446;-93
2023/04/17 04:00:17;;;;;;;2.77;2.57;;;19.60;67.70;;;;;;5036135;28;20904;-93
2023/04/17 04:02:43;;;;;;;3.13;2.83;;;19.60;67.70;;;;;;5036072;28;20451;-95
2023/04/17 04:05:10;;;;;;;3.23;2.93;;;19.50;67.70;;;;;;5035333;28;20442;-92
2023/04/17 04:07:37;;;;;;;2.60;2.40;;;19.70;67.90;;;;;;5034907;28;20434;-95
2023/04/17 04:10:05;;;;;;;2.77;2.57;;;19.70;67.90;;;;;;5034982;28;20541;-94
2023/04/17 04:12:32;;;;;;;2.70;2.50;;;19.70;67.90;;;;;;5034828;28;20578;-92
2023/04/17 04:14:59;;;;;;;2.93;2.73;;;19.70;67.90;;;;;;5034044;28;20505;-93
2023/04/17 04:17:28;;;;;;;3.00;2.80;;;19.70;67.90;;;;;;5034650;28;21009;-96
2023/04/17 04:19:54;;;;;;;2.60;2.50;;;19.70;67.90;;;;;;5033974;28;21013;-96
2023/04/17 04:22:21;;;;;;;3.20;2.90;;;19.60;67.70;;;;;;5033850;28;20949;-93
2023/04/17 04:24:48;;;;;;;2.30;2.10;;;19.80;68.00;;;;;;5033650;28;20558;-93
2023/04/17 04:27:16;;;;;;;2.87;2.67;;;19.70;67.90;;;;;;5033879;28;20956;-93
2023/04/17 04:29:44;;;;;;;2.80;2.60;;;19.60;67.80;;;;;;5033986;28;20544;-93
2023/04/17 04:32:14;;;;;;;2.40;2.20;;;19.70;67.90;;;;;;5034161;28;20493;-93
2023/04/17 04:34:44;;;;;;;3.10;2.90;;;19.70;67.90;;;;;;5073120;23;20503;-93
2023/04/17 04:37:14;;;;;;;2.77;2.57;;;19.60;67.80;;;;;;5034027;28;20422;-92
2023/04/17 04:39:46;;;;;;;2.93;2.73;;;19.80;68.00;;;;;;5034188;28;20446;-94
2023/04/17 04:42:12;;;;;;;3.37;3.17;;;19.70;67.90;;;;;;5034613;28;20470;-92
2023/04/17 04:44:39;;;;;;;2.57;2.37;;;19.60;67.80;;;;;;5034919;28;20850;-92
2023/04/17 04:47:06;;;;;;;2.97;2.77;;;19.70;67.90;;;;;;5034699;28;20525;-93
2023/04/17 04:49:33;;;;;;;3.10;2.67;;;19.60;67.80;;;;;;5034795;28;20463;-92
2023/04/17 04:52:01;;;;;;;2.67;2.57;;;19.60;67.80;;;;;;5035194;28;20480;-95
2023/04/17 04:54:28;;;;;;;2.50;2.30;;;19.60;67.80;;;;;;5034635;28;20557;-93
2023/04/17 04:56:58;;;;;;;2.40;2.30;;;19.60;67.80;;;;;;5036036;28;20453;-92
2023/04/17 04:59:24;;;;;;;2.90;2.70;;;19.60;67.80;;;;;;5037442;28;20942;-92
2023/04/17 05:01:51;;;;;;;2.60;2.40;;;19.60;67.80;;;;;;5037949;28;20529;-92
2023/04/17 05:04:18;;;;;;;3.10;2.90;;;19.60;67.80;;;;;;5038980;28;20576;-94
2023/04/17 05:06:46;;;;;;;3.10;2.90;;;19.60;67.80;;;;;;5038181;28;20445;-92
2023/04/17 05:09:14;;;;;;;2.83;2.63;;;19.60;67.80;;;;;;5038361;28;20928;-93
2023/04/17 05:11:44;;;;;;;4.07;3.77;;;19.60;68.60;;;;;;5038590;28;20568;-93
2023/04/17 05:14:11;;;;;;;2.60;2.40;;;19.60;67.80;;;;;;5038346;28;20474;-93
2023/04/17 05:16:39;;;;;;;3.20;3.00;;;19.60;67.80;;;;;;5037537;28;20478;-93
2023/04/17 05:19:06;;;;;;;2.67;2.47;;;19.70;68.00;;;;;;5037340;28;20457;-93
2023/04/17 05:21:33;;;;;;;2.80;2.60;;;19.60;67.80;;;;;;5037749;28;20469;-92
2023/04/17 05:23:59;;;;;;;2.50;2.30;;;19.70;68.00;;;;;;5037418;28;20500;-95
2023/04/17 05:26:28;;;;;;;2.70;2.50;;;19.60;67.90;;;;;;5037124;28;20445;-93
2023/04/17 05:28:55;;;;;;;2.70;2.50;;;19.60;67.80;;;;;;5037038;28;20449;-93
2023/04/17 05:31:22;;;;;;;2.50;2.30;;;19.60;67.80;;;;;;5036746;28;20532;-92
2023/04/17 05:33:48;;;;;;;2.70;2.50;;;19.70;68.00;;;;;;5037108;28;20456;-93
2023/04/17 05:36:15;;;;;;;2.97;2.77;;;19.70;68.00;;;;;;5036459;28;20478;-92
2023/04/17 05:38:42;;;;;;;3.00;2.80;;;19.60;67.90;;;;;;5037226;28;20469;-91
2023/04/17 05:41:09;;;;;;;2.70;2.50;;;19.60;67.90;;;;;;5036970;28;20438;-93
2023/04/17 05:43:37;;;;;;;2.90;2.70;;;19.60;67.90;;;;;;5037085;28;20474;-92
2023/04/17 05:46:04;;;;;;;2.57;2.37;;;19.60;67.90;;;;;;5037676;28;20835;-94
2023/04/17 05:48:31;;;;;;;2.60;2.40;;;19.60;67.90;;;;;;5037539;28;20541;-93
2023/04/17 05:50:58;;;;;;;3.20;2.50;;;19.60;67.90;;;;;;5037260;28;20460;-91
2023/04/17 05:53:25;;;;;;;2.60;2.43;;;19.60;67.90;;;;;;5037289;28;20468;-92
2023/04/17 05:55:53;;;;;;;2.80;2.60;;;19.60;67.90;;;;;;5038975;28;20446;-94
2023/04/17 05:58:20;;;;;;;3.17;2.97;;;19.60;67.90;;;;;;5054643;28;20426;-89
2023/04/17 06:00:48;;;;;;;2.53;2.33;;;19.60;67.90;;;;;;5051543;28;20466;-90
2023/04/17 06:03:15;;;;;;;3.17;2.83;;;19.60;67.80;;;;;;5037092;28;20447;-93
2023/04/17 06:05:42;;;;;;;2.97;2.70;;;19.70;68.00;;;;;;5036332;28;20447;-92
2023/04/17 06:08:09;;;;;;;3.13;2.87;;;19.70;67.90;;;;;;5035660;28;20478;-92
2023/04/17 06:10:36;;;;;;;2.57;2.37;;;19.60;67.70;;;;;;5036516;28;20775;-96
2023/04/17 06:13:03;;;;;;;2.57;2.37;;;19.70;67.90;;;;;;5036537;28;20994;-95
2023/04/17 06:15:30;;;;;;;3.03;2.80;;;19.70;68.00;;;;;;5035906;28;20485;-93
2023/04/17 06:17:58;;;;;;;2.67;2.47;;;19.70;68.00;;;;;;5035961;28;20457;-93
2023/04/17 06:20:25;;;;;;;3.00;2.80;;;19.70;67.90;;;;;;5035976;28;20508;-92
2023/04/17 06:22:52;;;;;;;3.20;3.00;;;19.70;68.10;;;;;;5036429;28;20565;-93
2023/04/17 06:25:19;;;;;;;2.57;2.37;;;19.70;68.30;;;;;;5036684;28;21009;-92
2023/04/17 06:27:46;;;;;;;3.73;3.40;;;19.70;68.40;;;;;;5036062;28;20528;-93
2023/04/17 06:30:13;;;;;;;7.30;2.80;;;19.70;68.40;;;;;;5036674;28;20541;-92
2023/04/17 06:32:42;;;;;;;3.10;2.90;;;19.70;68.40;;;;;;5035905;28;20481;-93
2023/04/17 06:35:12;;;;;;;3.60;3.33;;;19.80;68.60;;;;;;5035559;28;20485;-92
2023/04/17 06:37:39;;;;;;;4.97;3.13;;;19.70;68.70;;;;;;5036370;28;20442;-94
2023/04/17 06:40:07;;;;;;;3.07;2.87;;;19.70;68.90;;;;;;5027552;28;20441;-93
2023/04/17 06:42:35;;;;;;;3.50;3.20;;;19.70;68.60;;;;;;5035431;28;20479;-93
2023/04/17 06:45:02;;;;;;;11.13;2.77;;;19.70;69.00;;;;;;5035297;28;20445;-94
2023/04/17 06:47:29;;;;;;;3.20;2.90;;;19.80;69.00;;;;;;5036346;28;20457;-93
2023/04/17 06:49:58;;;;;;;2.67;2.47;;;19.80;69.10;;;;;;5035277;28;20454;-93
2023/04/17 06:52:26;;;;;;;2.63;2.43;;;19.80;68.90;;;;;;5034986;28;20979;-93
2023/04/17 06:54:54;;;;;;;3.83;3.37;;;19.80;70.00;;;;;;5035488;28;20885;-93
2023/04/17 06:57:21;;;;;;;3.10;2.87;;;19.80;69.20;;;;;;5035422;28;20851;-94
2023/04/17 06:59:48;;;;;;;3.13;2.83;;;19.90;69.50;;;;;;5035085;28;20446;-94
2023/04/17 07:02:15;;;;;;;3.10;2.80;;;19.80;69.60;;;;;;5034944;28;20996;-94
2023/04/17 07:04:50;;;;;;;2.63;2.43;;;19.80;69.50;;;;;;5040510;28;20449;-94
2023/04/17 07:07:17;;;;;;;10.40;3.93;;;19.80;69.40;;;;;;5040412;28;20433;-94
2023/04/17 07:09:47;;;;;;;3.00;2.80;;;19.80;69.50;;;;;;5035698;28;20446;-94
2023/04/17 07:12:14;;;;;;;3.30;3.00;;;19.80;69.70;;;;;;5035565;28;20484;-93
2023/04/17 07:14:41;;;;;;;2.90;2.70;;;19.80;70.00;;;;;;5035485;28;20481;-94
2023/04/17 07:17:08;;;;;;;3.50;2.80;;;19.80;69.70;;;;;;5043773;28;20450;-96
2023/04/17 07:22:49;;;;;;;4.10;3.80;;;19.80;69.60;;;;;;5050479;28;20563;-91
2023/04/17 07:25:22;;;;;;;7.40;6.73;;;19.80;70.10;;;;;;5123668;23;20507;-96
2023/04/17 07:27:49;;;;;;;11.57;6.97;;;19.90;70.20;;;;;;5086946;23;20546;-92
2023/04/17 07:33:41;;;;;;;5.23;4.33;;;19.80;70.00;;;;;;5076183;28;20518;-96
2023/04/17 07:38:44;;;;;;;6.33;3.90;;;19.80;70.00;;;;;;5669622;22;20468;-94
2023/04/17 07:43:47;;;;;;;5.70;4.60;;;19.80;70.10;;;;;;5046294;22;20502;-93
2023/04/17 07:49:45;;;;;;;4.00;3.60;;;19.80;70.00;;;;;;4998353;28;20415;-96
2023/04/17 07:52:14;;;;;;;3.97;3.70;;;19.80;70.30;;;;;;5009056;28;20499;-96
2023/04/17 07:54:40;;;;;;;5.57;3.70;;;19.80;69.90;;;;;;5000351;28;20998;-95
2023/04/17 07:57:07;;;;;;;4.30;3.83;;;19.80;69.80;;;;;;4999667;28;20486;-92
2023/04/17 07:59:36;;;;;;;5.20;3.83;;;19.80;70.30;;;;;;4997110;28;20444;-93
2023/04/17 08:02:03;;;;;;;7.97;3.80;;;19.90;70.10;;;;;;4997360;28;20464;-91
2023/04/17 08:04:31;;;;;;;5.37;4.00;;;19.90;70.40;;;;;;4995976;28;20463;-90
2023/04/17 08:06:58;;;;;;;5.60;3.73;;;19.90;70.00;;;;;;4995827;28;20523;-91
2023/04/17 08:09:25;;;;;;;4.00;3.67;;;19.90;70.30;;;;;;4996743;28;20458;-90
2023/04/17 08:12:02;;;;;;;13.43;4.77;;;19.90;70.40;;;;;;4996606;28;20515;-94
2023/04/17 08:14:32;;;;;;;6.70;3.67;;;19.80;70.20;;;;;;5001438;28;20451;-93
2023/04/17 08:17:01;;;;;;;4.07;3.73;;;19.90;70.30;;;;;;4996678;28;20444;-90
2023/04/17 08:19:30;;;;;;;3.30;3.07;;;19.90;70.20;;;;;;4995872;28;20502;-91
2023/04/17 08:22:06;;;;;;;7.77;4.00;;;19.90;70.10;;;;;;4997073;28;20483;-95
2023/04/17 08:24:33;;;;;;;6.67;3.87;;;19.90;69.80;;;;;;5024978;23;20565;-91
2023/04/17 08:27:00;;;;;;;5.80;5.00;;;19.90;70.10;;;;;;5036989;28;20472;-91
2023/04/17 08:29:28;;;;;;;3.60;3.30;;;19.90;70.10;;;;;;5038216;28;20469;-90
2023/04/17 08:31:54;;;;;;;5.43;3.60;;;19.90;70.10;;;;;;5040347;28;20865;-90
2023/04/17 08:34:26;;;;;;;4.03;3.50;;;19.90;70.30;;;;;;5042531;28;20488;-91
2023/04/17 08:36:53;;;;;;;6.77;4.00;;;19.90;70.50;;;;;;5049169;28;20446;-91
2023/04/17 08:39:20;;;;;;;7.03;3.90;;;19.90;70.80;;;;;;5054027;28;20491;-90
2023/04/17 08:41:53;;;;;;;5.30;4.20;;;19.90;71.10;;;;;;5056936;28;20438;-90
2023/04/17 08:44:20;;;;;;;4.73;3.67;;;19.90;71.30;;;;;;5057467;28;20446;-91
2023/04/17 08:46:47;;;;;;;7.90;4.07;;;20.00;71.70;;;;;;5055965;28;20434;-93
2023/04/17 08:49:15;;;;;;;7.70;4.10;;;20.00;71.90;;;;;;5038424;28;20885;-91
2023/04/17 08:51:43;;;;;;;5.10;4.27;;;20.00;72.00;;;;;;5039874;28;20439;-89
2023/04/17 08:54:10;;;;;;;4.10;3.80;;;20.00;71.80;;;;;;5037905;28;20543;-88
2023/04/17 08:56:37;;;;;;;6.50;3.90;;;20.10;72.20;;;;;;5037212;28;20442;-90
2023/04/17 08:59:04;;;;;;;5.73;4.20;;;20.10;72.20;;;;;;5037206;28;20862;-91
2023/04/17 09:01:33;;;;;;;4.30;3.90;;;20.00;72.10;;;;;;5036949;28;20450;-89
2023/04/17 09:04:00;;;;;;;3.90;3.60;;;20.00;72.10;;;;;;5036890;28;20453;-91
2023/04/17 09:06:53;;;;;;;5.03;3.70;;;20.10;72.30;;;;;;5037233;28;20527;-90
2023/04/17 09:09:20;;;;;;;4.13;3.73;;;20.10;72.40;;;;;;5046807;28;20916;-92
2023/04/17 09:12:10;;;;;;;5.13;3.77;;;20.10;72.30;;;;;;5056902;28;20441;-91
2023/04/17 09:14:36;;;;;;;3.90;3.50;;;20.10;72.30;;;;;;5052503;28;20494;-90
2023/04/17 09:17:05;;;;;;;12.67;4.13;;;20.20;72.30;;;;;;5056722;28;20532;-90
2023/04/17 09:19:32;;;;;;;4.10;3.03;;;20.20;72.20;;;;;;5056661;28;20447;-92
2023/04/17 09:22:17;;;;;;;6.00;3.87;;;20.30;72.30;;;;;;5057008;28;20531;-92
2023/04/17 09:24:45;;;;;;;3.57;3.27;;;20.30;72.20;;;;;;5057047;28;20501;-92
2023/04/17 09:27:22;;;;;;;5.37;3.57;;;20.30;72.20;;;;;;5056685;28;20540;-91
2023/04/17 09:29:59;;;;;;;5.20;3.67;;;20.40;72.10;;;;;;5056657;28;20448;-92
2023/04/17 09:32:27;;;;;;;3.50;3.20;;;20.30;71.90;;;;;;5056151;28;20481;-91
2023/04/17 09:34:55;;;;;;;4.13;3.73;;;20.30;71.80;;;;;;5057047;28;20538;-94
2023/04/17 09:37:59;;;;;;;3.80;3.23;;;20.40;71.80;;;;;;5056828;28;20458;-91
2023/04/17 09:40:27;;;;;;;3.73;3.43;;;20.40;71.90;;;;;;5056417;28;20435;-90
2023/04/17 09:43:07;;;;;;;4.30;3.77;;;20.40;72.00;;;;;;5054978;28;20955;-94
2023/04/17 09:45:37;;;;;;;3.63;3.30;;;20.50;72.00;;;;;;5056967;28;20537;-90
2023/04/17 09:48:07;;;;;;;4.40;3.57;;;20.50;71.90;;;;;;5057629;28;20758;-89
2023/04/17 09:50:34;;;;;;;3.50;3.30;;;20.50;71.80;;;;;;5056078;28;20437;-90
2023/04/17 09:53:06;;;;;;;3.27;2.97;;;20.60;71.70;;;;;;5055738;28;20489;-92
2023/04/17 09:55:52;;;;;;;3.80;3.50;;;20.60;71.70;;;;;;5056754;28;20474;-92
2023/04/17 09:58:20;;;;;;;3.40;3.10;;;20.70;71.80;;;;;;5056525;28;20498;-91
2023/04/17 10:00:47;;;;;;;3.60;3.30;;;20.70;71.70;;;;;;5055917;28;20446;-91
2023/04/17 10:03:16;;;;;;;3.63;3.20;;;20.80;71.80;;;;;;5056265;28;20469;-90
2023/04/17 10:05:44;;;;;;;4.00;3.60;;;20.70;71.70;;;;;;5055912;28;20874;-91
2023/04/17 10:08:13;;;;;;;3.73;3.40;;;20.70;71.40;;;;;;5055889;28;20437;-91
2023/04/17 10:10:40;;;;;;;4.20;3.10;;;20.80;71.40;;;;;;5055798;28;20473;-91
2023/04/17 10:13:11;;;;;;;4.03;3.67;;;20.80;71.50;;;;;;5049032;28;20477;-89
2023/04/17 10:15:39;;;;;;;5.33;2.93;;;20.80;71.30;;;;;;5055784;28;20507;-90
2023/04/17 10:18:20;;;;;;;5.93;2.97;;;20.80;71.30;;;;;;5036546;28;20526;-91
2023/04/17 10:20:47;;;;;;;4.10;3.40;;;20.80;71.40;;;;;;5015869;28;20447;-91
2023/04/17 10:23:32;;;;;;;3.10;2.83;;;20.80;71.50;;;;;;5015725;28;20557;-91
2023/04/17 10:26:37;;;;;;;3.77;2.73;;;20.80;71.50;;;;;;5021342;28;20444;-91
2023/04/17 10:29:04;;;;;;;4.00;3.70;;;20.80;71.70;;;;;;4996333;28;20528;-92
2023/04/17 10:32:09;;;;;;;3.87;3.20;;;20.80;71.70;;;;;;5017029;28;20468;-92
2023/04/17 10:34:37;;;;;;;6.73;3.37;;;20.90;71.90;;;;;;4996138;28;20443;-91
2023/04/17 10:37:06;;;;;;;2.90;2.70;;;20.90;71.80;;;;;;4996335;28;20519;-90
2023/04/17 10:40:09;;;;;;;3.20;3.00;;;21.00;71.90;;;;;;4999824;28;20514;-90
2023/04/17 10:42:36;;;;;;;3.20;2.90;;;21.00;71.70;;;;;;4995860;28;20449;-90
2023/04/17 10:45:04;;;;;;;2.77;2.57;;;21.00;71.50;;;;;;4995843;28;20927;-90
2023/04/17 10:47:32;;;;;;;5.40;3.37;;;21.00;71.20;;;;;;4996111;28;20799;-91
2023/04/17 10:50:02;;;;;;;3.10;2.90;;;21.10;71.10;;;;;;4995994;28;20451;-90
2023/04/17 10:52:38;;;;;;;2.90;2.70;;;21.00;71.90;;;;;;4995680;28;20465;-91
2023/04/17 10:55:13;;;;;;;3.17;2.97;;;21.00;71.00;;;;;;4995920;28;20498;-91
2023/04/17 10:58:12;;;;;;;3.40;3.10;;;21.00;71.00;;;;;;5033069;28;20443;-92
2023/04/17 11:00:52;;;;;;;3.43;3.13;;;21.00;71.30;;;;;;5020392;28;20469;-88
2023/04/17 11:03:23;;;;;;;3.20;2.87;;;21.20;71.70;;;;;;5027307;28;20878;-89
2023/04/17 11:05:51;;;;;;;3.43;3.23;;;21.00;71.60;;;;;;5026886;28;20434;-93
2023/04/17 11:08:19;;;;;;;8.30;2.80;;;21.00;71.80;;;;;;5035955;28;20508;-92
2023/04/17 11:10:51;;;;;;;3.20;3.00;;;21.10;71.70;;;;;;5036382;28;20533;-92
2023/04/17 11:13:18;;;;;;;3.07;2.77;;;21.10;71.60;;;;;;5021941;28;20541;-94
2023/04/17 11:15:45;;;;;;;3.60;2.90;;;21.10;71.50;;;;;;4998830;28;20475;-91
2023/04/17 11:18:15;;;;;;;4.13;3.20;;;21.10;71.40;;;;;;5017397;28;20478;-93
2023/04/17 11:20:42;;;;;;;2.90;2.70;;;21.20;71.70;;;;;;5031483;28;20455;-93
2023/04/17 11:23:09;;;;;;;2.90;2.67;;;21.10;71.60;;;;;;5031617;28;20494;-94
2023/04/17 11:25:40;;;;;;;3.80;3.47;;;21.10;71.60;;;;;;5016464;28;20521;-89
2023/04/17 11:28:08;;;;;;;3.13;2.90;;;21.20;71.70;;;;;;5017428;28;20444;-92
2023/04/17 11:30:37;;;;;;;3.03;2.83;;;21.20;71.70;;;;;;5015655;28;20812;-91
2023/04/17 11:33:08;;;;;;;3.30;2.70;;;21.20;71.60;;;;;;5018841;28;20478;-95
2023/04/17 11:35:38;;;;;;;3.20;3.00;;;21.20;71.10;;;;;;5019167;28;20451;-94
2023/04/17 11:38:11;;;;;;;2.93;2.73;;;21.20;69.50;;;;;;5018731;28;20455;-94
2023/04/17 11:40:47;;;;;;;3.13;2.83;;;21.20;69.00;;;;;;5019215;28;20530;-94
2023/04/17 11:43:17;;;;;;;3.20;2.90;;;21.10;68.90;;;;;;5019311;28;20450;-93
2023/04/17 11:45:45;;;;;;;4.43;2.97;;;21.10;68.80;;;;;;5016858;28;20534;-90
2023/04/17 11:48:14;;;;;;;2.97;2.73;;;21.10;68.90;;;;;;5018990;28;20444;-90
2023/04/17 11:50:43;;;;;;;3.83;3.10;;;21.20;69.50;;;;;;5014968;28;20505;-90
2023/04/17 11:53:16;;;;;;;2.97;2.77;;;21.10;69.70;;;;;;5014850;28;20486;-90
2023/04/17 11:55:43;;;;;;;3.83;3.00;;;21.10;69.90;;;;;;5014785;28;20871;-90
2023/04/17 11:58:12;;;;;;;3.03;2.83;;;21.10;70.00;;;;;;5014892;28;20483;-91
2023/04/17 12:00:41;;;;;;;4.90;2.87;;;21.10;70.10;;;;;;5015713;28;20470;-88
2023/04/17 12:03:31;;;;;;;2.90;2.70;;;21.20;70.20;;;;;;5022060;28;20446;-96
2023/04/17 12:05:59;;;;;;;2.90;2.70;;;21.20;69.50;;;;;;5037246;28;20450;-91
2023/04/17 12:08:26;;;;;;;5.20;2.80;;;21.10;69.50;;;;;;5035288;28;20941;-92
2023/04/17 12:10:53;;;;;;;3.10;2.90;;;21.20;69.90;;;;;;5033938;28;20446;-91
2023/04/17 12:13:20;;;;;;;4.63;2.60;;;21.20;70.00;;;;;;5033592;28;20490;-91
2023/04/17 12:15:48;;;;;;;3.50;3.00;;;21.20;70.20;;;;;;5033961;28;20451;-91
2023/04/17 12:18:18;;;;;;;4.07;3.23;;;21.20;70.30;;;;;;5033677;28;20453;-91
2023/04/17 12:20:45;;;;;;;3.10;2.80;;;21.20;70.30;;;;;;5036025;28;20925;-91
2023/04/17 12:23:12;;;;;;;3.07;2.87;;;21.30;70.60;;;;;;5033753;28;20566;-91
2023/04/17 12:25:39;;;;;;;3.23;3.00;;;21.30;70.60;;;;;;5033516;28;20569;-91
2023/04/17 12:28:05;;;;;;;3.30;2.70;;;21.30;70.60;;;;;;5033740;28;20457;-90
2023/04/17 12:30:34;;;;;;;3.00;2.73;;;21.30;70.70;;;;;;5033505;28;20486;-89
2023/04/17 12:33:04;;;;;;;2.90;2.70;;;21.40;70.90;;;;;;5034015;28;20489;-93
2023/04/17 12:35:58;;;;;;;4.80;2.67;;;21.50;71.10;;;;;;5034556;28;20442;-93
2023/04/17 12:38:25;;;;;;;3.20;2.90;;;21.40;70.90;;;;;;5033582;28;20482;-91
2023/04/17 12:41:19;;;;;;;2.87;2.53;;;21.40;71.80;;;;;;5033724;28;20454;-93
2023/04/17 12:43:46;;;;;;;2.67;2.47;;;21.40;71.00;;;;;;5034513;28;20489;-90
2023/04/17 12:46:13;;;;;;;2.93;2.73;;;21.40;71.10;;;;;;5033490;28;20988;-90
2023/04/17 12:49:30;;;;;;;4.00;3.10;;;21.40;71.10;;;;;;5034201;28;20470;-93
2023/04/17 12:51:58;;;;;;;3.60;3.00;;;21.50;71.10;;;;;;5034242;28;20446;-90
2023/04/17 12:54:25;;;;;;;3.30;3.00;;;21.40;71.10;;;;;;5033377;28;20996;-93
2023/04/17 12:56:52;;;;;;;3.27;2.97;;;21.40;71.10;;;;;;5037259;28;20464;-95
2023/04/17 12:59:21;;;;;;;3.07;2.83;;;21.40;71.10;;;;;;5045540;23;20543;-91
2023/04/17 13:01:48;;;;;;;4.30;2.80;;;21.60;71.30;;;;;;5034558;28;20869;-93
2023/04/17 13:04:17;;;;;;;4.13;3.40;;;21.40;71.10;;;;;;5034363;28;20877;-92
2023/04/17 13:06:44;;;;;;;3.03;2.70;;;21.50;71.10;;;;;;5032810;28;20446;-93
2023/04/17 13:09:13;;;;;;;4.30;3.87;;;21.40;71.10;;;;;;5034222;28;20478;-92
2023/04/17 13:11:40;;;;;;;3.07;2.87;;;21.40;71.10;;;;;;5033808;28;20438;-93